sensor_id;sensor_type;location;lat;lon;timestamp;temperature;humidity
63277;DHT22;49403;51.046;13.780;2022-11-23T00:00:14;8.50;76.20
63277;DHT22;49403;51.046;13.780;2022-11-23T00:00:45;7.50;74.70
63277;DHT22;49403;51.046;13.780;2022-11-23T00:01:24;7.40;75.20
63277;DHT22;49403;51.046;13.780;2022-11-23T00:01:55;7.40;74.60
63277;DHT22;49403;51.046;13.780;2022-11-23T00:02:26;9.10;77.20
63277;DHT22;49403;51.046;13.780;2022-11-23T00:02:57;9.50;77.30
63277;DHT22;49403;51.046;13.780;2022-11-23T00:03:28;7.30;74.70
63277;DHT22;49403;51.046;13.780;2022-11-23T00:04:04;7.30;75.40
63277;DHT22;49403;51.046;13.780;2022-11-23T00:04:35;7.30;74.70
63277;DHT22;49403;51.046;13.780;2022-11-23T00:05:06;7.30;75.40
63277;DHT22;49403;51.046;13.780;2022-11-23T00:05:38;7.40;74.90
63277;DHT22;49403;51.046;13.780;2022-11-23T00:06:09;7.30;75.60
63277;DHT22;49403;51.046;13.780;2022-11-23T00:06:40;7.30;75.70
63277;DHT22;49403;51.046;13.780;2022-11-23T00:07:11;7.30;75.60
63277;DHT22;49403;51.046;13.780;2022-11-23T00:07:41;6.70;75.30
63277;DHT22;49403;51.046;13.780;2022-11-23T00:08:12;7.20;75.70
63277;DHT22;49403;51.046;13.780;2022-11-23T00:08:44;7.20;75.40
63277;DHT22;49403;51.046;13.780;2022-11-23T00:09:15;9.40;76.90
63277;DHT22;49403;51.046;13.780;2022-11-23T00:09:45;7.30;75.70
63277;DHT22;49403;51.046;13.780;2022-11-23T00:10:16;7.30;75.80
63277;DHT22;49403;51.046;13.780;2022-11-23T00:10:47;7.20;75.40
63277;DHT22;49403;51.046;13.780;2022-11-23T00:11:19;7.30;75.70
63277;DHT22;49403;51.046;13.780;2022-11-23T00:11:50;7.30;74.90
63277;DHT22;49403;51.046;13.780;2022-11-23T00:12:21;7.30;75.60
63277;DHT22;49403;51.046;13.780;2022-11-23T00:12:51;7.30;75.80
63277;DHT22;49403;51.046;13.780;2022-11-23T00:13:22;7.40;75.70
63277;DHT22;49403;51.046;13.780;2022-11-23T00:13:54;7.50;76.00
63277;DHT22;49403;51.046;13.780;2022-11-23T00:14:25;7.30;75.00
63277;DHT22;49403;51.046;13.780;2022-11-23T00:14:55;7.30;75.70
63277;DHT22;49403;51.046;13.780;2022-11-23T00:15:26;8.50;77.00
63277;DHT22;49403;51.046;13.780;2022-11-23T00:15:57;7.70;76.20
63277;DHT22;49403;51.046;13.780;2022-11-23T00:16:29;7.30;76.00
63277;DHT22;49403;51.046;13.780;2022-11-23T00:17:00;7.30;75.20
63277;DHT22;49403;51.046;13.780;2022-11-23T00:17:31;7.30;75.80
63277;DHT22;49403;51.046;13.780;2022-11-23T00:18:02;7.90;76.40
63277;DHT22;49403;51.046;13.780;2022-11-23T00:18:33;7.20;75.70
63277;DHT22;49403;51.046;13.780;2022-11-23T00:19:04;8.80;77.50
63277;DHT22;49403;51.046;13.780;2022-11-23T00:19:35;7.20;75.70
63277;DHT22;49403;51.046;13.780;2022-11-23T00:20:07;7.30;76.00
63277;DHT22;49403;51.046;13.780;2022-11-23T00:20:38;7.20;75.10
63277;DHT22;49403;51.046;13.780;2022-11-23T00:21:14;7.20;75.80
63277;DHT22;49403;51.046;13.780;2022-11-23T00:21:45;6.40;74.00
63277;DHT22;49403;51.046;13.780;2022-11-23T00:22:16;8.50;77.40
63277;DHT22;49403;51.046;13.780;2022-11-23T00:22:47;7.20;76.10
63277;DHT22;49403;51.046;13.780;2022-11-23T00:23:18;9.00;78.00
63277;DHT22;49403;51.046;13.780;2022-11-23T00:23:48;7.60;76.50
63277;DHT22;49403;51.046;13.780;2022-11-23T00:24:19;8.50;77.50
63277;DHT22;49403;51.046;13.780;2022-11-23T00:24:50;7.10;76.10
63277;DHT22;49403;51.046;13.780;2022-11-23T00:25:21;7.20;76.10
63277;DHT22;49403;51.046;13.780;2022-11-23T00:25:52;7.20;76.30
63277;DHT22;49403;51.046;13.780;2022-11-23T00:26:22;7.30;76.10
63277;DHT22;49403;51.046;13.780;2022-11-23T00:26:53;6.00;75.00
63277;DHT22;49403;51.046;13.780;2022-11-23T00:27:24;7.30;76.30
63277;DHT22;49403;51.046;13.780;2022-11-23T00:27:55;7.60;76.30
63277;DHT22;49403;51.046;13.780;2022-11-23T00:28:26;7.20;76.10
63277;DHT22;49403;51.046;13.780;2022-11-23T00:28:56;7.90;76.70
63277;DHT22;49403;51.046;13.780;2022-11-23T00:29:27;7.40;76.20
63277;DHT22;49403;51.046;13.780;2022-11-23T00:29:58;7.20;76.00
63277;DHT22;49403;51.046;13.780;2022-11-23T00:30:29;7.30;76.20
63277;DHT22;49403;51.046;13.780;2022-11-23T00:31:00;6.90;75.90
63277;DHT22;49403;51.046;13.780;2022-11-23T00:31:30;7.30;76.20
63277;DHT22;49403;51.046;13.780;2022-11-23T00:32:01;7.00;75.70
63277;DHT22;49403;51.046;13.780;2022-11-23T00:32:32;6.60;75.60
63277;DHT22;49403;51.046;13.780;2022-11-23T00:33:03;6.30;75.30
63277;DHT22;49403;51.046;13.780;2022-11-23T00:33:34;7.20;76.10
63277;DHT22;49403;51.046;13.780;2022-11-23T00:34:04;7.10;76.10
63277;DHT22;49403;51.046;13.780;2022-11-23T00:34:35;7.00;76.00
63277;DHT22;49403;51.046;13.780;2022-11-23T00:35:06;7.20;76.30
63277;DHT22;49403;51.046;13.780;2022-11-23T00:35:37;7.20;75.50
63277;DHT22;49403;51.046;13.780;2022-11-23T00:36:13;7.20;76.10
63277;DHT22;49403;51.046;13.780;2022-11-23T00:36:44;7.20;75.50
63277;DHT22;49403;51.046;13.780;2022-11-23T00:37:15;7.20;76.10
63277;DHT22;49403;51.046;13.780;2022-11-23T00:37:45;7.20;76.10
63277;DHT22;49403;51.046;13.780;2022-11-23T00:38:16;7.90;76.80
63277;DHT22;49403;51.046;13.780;2022-11-23T00:38:48;7.30;76.30
63277;DHT22;49403;51.046;13.780;2022-11-23T00:39:19;7.10;75.40
63277;DHT22;49403;51.046;13.780;2022-11-23T00:39:50;7.10;76.20
63277;DHT22;49403;51.046;13.780;2022-11-23T00:40:20;5.90;75.00
63277;DHT22;49403;51.046;13.780;2022-11-23T00:40:59;7.10;76.40
63277;DHT22;49403;51.046;13.780;2022-11-23T00:41:30;7.10;75.40
63277;DHT22;49403;51.046;13.780;2022-11-23T00:42:01;6.40;75.50
63277;DHT22;49403;51.046;13.780;2022-11-23T00:42:32;7.20;76.30
63277;DHT22;49403;51.046;13.780;2022-11-23T00:43:02;5.00;75.00
63277;DHT22;49403;51.046;13.780;2022-11-23T00:43:34;6.90;76.30
63277;DHT22;49403;51.046;13.780;2022-11-23T00:44:04;7.90;77.00
63277;DHT22;49403;51.046;13.780;2022-11-23T00:44:35;7.00;76.20
63277;DHT22;49403;51.046;13.780;2022-11-23T00:45:06;7.00;76.40
63277;DHT22;49403;51.046;13.780;2022-11-23T00:45:37;7.10;75.60
63277;DHT22;49403;51.046;13.780;2022-11-23T00:46:16;7.10;76.50
63277;DHT22;49403;51.046;13.780;2022-11-23T00:46:47;7.80;76.20
63277;DHT22;49403;51.046;13.780;2022-11-23T00:47:18;7.10;76.40
63277;DHT22;49403;51.046;13.780;2022-11-23T00:47:49;6.50;75.80
63277;DHT22;49403;51.046;13.780;2022-11-23T00:48:20;7.40;76.80
63277;DHT22;49403;51.046;13.780;2022-11-23T00:48:52;7.10;76.40
63277;DHT22;49403;51.046;13.780;2022-11-23T00:49:23;7.30;75.60
63277;DHT22;49403;51.046;13.780;2022-11-23T00:49:54;7.10;76.40
63277;DHT22;49403;51.046;13.780;2022-11-23T00:50:25;7.10;76.80
63277;DHT22;49403;51.046;13.780;2022-11-23T00:50:56;9.20;78.20
63277;DHT22;49403;51.046;13.780;2022-11-23T00:51:30;7.10;76.30
63277;DHT22;49403;51.046;13.780;2022-11-23T00:52:01;7.10;75.70
63277;DHT22;49403;51.046;13.780;2022-11-23T00:52:32;7.10;76.40
63277;DHT22;49403;51.046;13.780;2022-11-23T00:53:02;7.10;76.60
63277;DHT22;49403;51.046;13.780;2022-11-23T00:53:34;7.30;76.60
63277;DHT22;49403;51.046;13.780;2022-11-23T00:54:05;7.30;75.80
63277;DHT22;49403;51.046;13.780;2022-11-23T00:54:36;7.00;76.40
63277;DHT22;49403;51.046;13.780;2022-11-23T00:55:07;6.50;76.00
63277;DHT22;49403;51.046;13.780;2022-11-23T00:55:38;7.10;76.40
63277;DHT22;49403;51.046;13.780;2022-11-23T00:56:09;7.10;76.30
63277;DHT22;49403;51.046;13.780;2022-11-23T00:56:41;6.10;74.70
63277;DHT22;49403;51.046;13.780;2022-11-23T00:57:11;7.10;76.30
63277;DHT22;49403;51.046;13.780;2022-11-23T00:57:42;7.10;76.40
63277;DHT22;49403;51.046;13.780;2022-11-23T00:58:13;7.20;76.50
63277;DHT22;49403;51.046;13.780;2022-11-23T00:58:48;7.20;76.50
63277;DHT22;49403;51.046;13.780;2022-11-23T00:59:19;7.40;76.00
63277;DHT22;49403;51.046;13.780;2022-11-23T00:59:50;7.10;76.60
63277;DHT22;49403;51.046;13.780;2022-11-23T01:00:21;5.10;74.90
63277;DHT22;49403;51.046;13.780;2022-11-23T01:01:07;8.40;77.70
63277;DHT22;49403;51.046;13.780;2022-11-23T01:01:38;8.30;76.80
63277;DHT22;49403;51.046;13.780;2022-11-23T01:02:09;7.00;76.40
63277;DHT22;49403;51.046;13.780;2022-11-23T01:02:40;7.00;76.50
63277;DHT22;49403;51.046;13.780;2022-11-23T01:03:11;7.00;76.60
63277;DHT22;49403;51.046;13.780;2022-11-23T01:03:44;7.00;76.70
63277;DHT22;49403;51.046;13.780;2022-11-23T01:04:15;7.00;75.90
63277;DHT22;49403;51.046;13.780;2022-11-23T01:04:46;7.40;77.10
63277;DHT22;49403;51.046;13.780;2022-11-23T01:05:17;7.00;76.60
63277;DHT22;49403;51.046;13.780;2022-11-23T01:05:47;7.00;76.80
63277;DHT22;49403;51.046;13.780;2022-11-23T01:06:21;7.00;76.60
63277;DHT22;49403;51.046;13.780;2022-11-23T01:06:55;7.00;75.80
63277;DHT22;49403;51.046;13.780;2022-11-23T01:07:27;7.00;75.90
63277;DHT22;49403;51.046;13.780;2022-11-23T01:07:59;7.40;77.00
63277;DHT22;49403;51.046;13.780;2022-11-23T01:08:30;5.60;75.50
63277;DHT22;49403;51.046;13.780;2022-11-23T01:09:05;7.20;76.80
63277;DHT22;49403;51.046;13.780;2022-11-23T01:09:36;7.10;76.10
63277;DHT22;49403;51.046;13.780;2022-11-23T01:10:07;7.00;76.80
63277;DHT22;49403;51.046;13.780;2022-11-23T01:10:37;7.00;76.00
63277;DHT22;49403;51.046;13.780;2022-11-23T01:11:10;7.00;76.90
63277;DHT22;49403;51.046;13.780;2022-11-23T01:11:42;7.40;76.30
63277;DHT22;49403;51.046;13.780;2022-11-23T01:12:12;7.00;76.90
63277;DHT22;49403;51.046;13.780;2022-11-23T01:12:43;7.00;77.00
63277;DHT22;49403;51.046;13.780;2022-11-23T01:13:14;7.00;76.80
63277;DHT22;49403;51.046;13.780;2022-11-23T01:13:45;7.00;77.00
63277;DHT22;49403;51.046;13.780;2022-11-23T01:14:16;7.60;76.80
63277;DHT22;49403;51.046;13.780;2022-11-23T01:14:47;8.60;78.10
63277;DHT22;49403;51.046;13.780;2022-11-23T01:15:17;7.00;76.80
63277;DHT22;49403;51.046;13.780;2022-11-23T01:15:49;7.20;76.90
63277;DHT22;49403;51.046;13.780;2022-11-23T01:16:28;7.10;75.90
63277;DHT22;49403;51.046;13.780;2022-11-23T01:16:59;7.10;76.00
63277;DHT22;49403;51.046;13.780;2022-11-23T01:17:30;7.00;76.60
63277;DHT22;49403;51.046;13.780;2022-11-23T01:18:01;7.40;77.10
63277;DHT22;49403;51.046;13.780;2022-11-23T01:18:32;7.10;76.70
63277;DHT22;49403;51.046;13.780;2022-11-23T01:19:06;7.00;76.40
63277;DHT22;49403;51.046;13.780;2022-11-23T01:19:37;6.90;75.90
63277;DHT22;49403;51.046;13.780;2022-11-23T01:20:08;7.00;76.80
63277;DHT22;49403;51.046;13.780;2022-11-23T01:20:39;6.60;76.30
63277;DHT22;49403;51.046;13.780;2022-11-23T01:21:10;7.00;76.70
63277;DHT22;49403;51.046;13.780;2022-11-23T01:21:41;6.50;76.20
63277;DHT22;49403;51.046;13.780;2022-11-23T01:22:12;7.50;76.40
63277;DHT22;49403;51.046;13.780;2022-11-23T01:22:43;6.90;76.70
63277;DHT22;49403;51.046;13.780;2022-11-23T01:23:14;7.00;76.80
63277;DHT22;49403;51.046;13.780;2022-11-23T01:23:45;6.90;76.90
63277;DHT22;49403;51.046;13.780;2022-11-23T01:24:20;6.30;76.10
63277;DHT22;49403;51.046;13.780;2022-11-23T01:24:51;7.00;76.10
63277;DHT22;49403;51.046;13.780;2022-11-23T01:25:22;7.00;76.60
63277;DHT22;49403;51.046;13.780;2022-11-23T01:25:53;5.90;75.80
63277;DHT22;49403;51.046;13.780;2022-11-23T01:26:24;6.90;76.80
63277;DHT22;49403;51.046;13.780;2022-11-23T01:26:55;6.90;77.10
63277;DHT22;49403;51.046;13.780;2022-11-23T01:27:26;6.90;76.70
63277;DHT22;49403;51.046;13.780;2022-11-23T01:27:56;6.90;76.80
63277;DHT22;49403;51.046;13.780;2022-11-23T01:28:27;6.90;76.90
63277;DHT22;49403;51.046;13.780;2022-11-23T01:28:58;6.90;76.90
63277;DHT22;49403;51.046;13.780;2022-11-23T01:29:29;6.80;76.90
63277;DHT22;49403;51.046;13.780;2022-11-23T01:30:00;6.90;76.80
63277;DHT22;49403;51.046;13.780;2022-11-23T01:30:31;7.00;77.10
63277;DHT22;49403;51.046;13.780;2022-11-23T01:31:04;6.90;76.70
63277;DHT22;49403;51.046;13.780;2022-11-23T01:31:36;6.90;76.10
63277;DHT22;49403;51.046;13.780;2022-11-23T01:32:07;7.00;76.30
63277;DHT22;49403;51.046;13.780;2022-11-23T01:32:38;7.00;77.00
63277;DHT22;49403;51.046;13.780;2022-11-23T01:33:08;6.90;77.00
63277;DHT22;49403;51.046;13.780;2022-11-23T01:33:39;6.90;77.20
63277;DHT22;49403;51.046;13.780;2022-11-23T01:34:11;6.90;76.30
63277;DHT22;49403;51.046;13.780;2022-11-23T01:34:42;7.50;76.80
63277;DHT22;49403;51.046;13.780;2022-11-23T01:35:13;7.00;76.80
63277;DHT22;49403;51.046;13.780;2022-11-23T01:35:43;4.80;75.00
63277;DHT22;49403;51.046;13.780;2022-11-23T01:36:20;7.10;77.10
63277;DHT22;49403;51.046;13.780;2022-11-23T01:36:51;7.60;76.80
63277;DHT22;49403;51.046;13.780;2022-11-23T01:37:22;6.90;77.10
63277;DHT22;49403;51.046;13.780;2022-11-23T01:37:53;6.90;77.30
63277;DHT22;49403;51.046;13.780;2022-11-23T01:38:24;6.20;75.80
63277;DHT22;49403;51.046;13.780;2022-11-23T01:38:56;6.50;76.80
63277;DHT22;49403;51.046;13.780;2022-11-23T01:39:27;6.20;75.60
63277;DHT22;49403;51.046;13.780;2022-11-23T01:39:58;7.00;77.30
63277;DHT22;49403;51.046;13.780;2022-11-23T01:40:29;6.90;77.10
63277;DHT22;49403;51.046;13.780;2022-11-23T01:40:59;6.90;77.00
63277;DHT22;49403;51.046;13.780;2022-11-23T01:41:35;9.20;79.00
63277;DHT22;49403;51.046;13.780;2022-11-23T01:42:07;6.90;75.90
63277;DHT22;49403;51.046;13.780;2022-11-23T01:42:56;6.90;77.00
63277;DHT22;49403;51.046;13.780;2022-11-23T01:43:27;6.80;76.30
63277;DHT22;49403;51.046;13.780;2022-11-23T01:43:58;6.70;77.30
63277;DHT22;49403;51.046;13.780;2022-11-23T01:44:31;8.50;78.10
63277;DHT22;49403;51.046;13.780;2022-11-23T01:45:40;5.20;75.10
63277;DHT22;49403;51.046;13.780;2022-11-23T01:46:11;6.70;76.00
63277;DHT22;49403;51.046;13.780;2022-11-23T01:46:42;6.70;76.60
63277;DHT22;49403;51.046;13.780;2022-11-23T01:47:13;6.70;77.70
63277;DHT22;49403;51.046;13.780;2022-11-23T01:47:44;6.70;77.70
63277;DHT22;49403;51.046;13.780;2022-11-23T01:48:20;7.20;78.20
63277;DHT22;49403;51.046;13.780;2022-11-23T01:49:00;6.70;76.90
63277;DHT22;49403;51.046;13.780;2022-11-23T01:49:44;7.30;77.40
63277;DHT22;49403;51.046;13.780;2022-11-23T01:50:15;6.80;76.50
63277;DHT22;49403;51.046;13.780;2022-11-23T01:50:49;6.80;77.90
63277;DHT22;49403;51.046;13.780;2022-11-23T01:51:25;6.70;76.90
63277;DHT22;49403;51.046;13.780;2022-11-23T01:52:00;6.70;77.10
63277;DHT22;49403;51.046;13.780;2022-11-23T01:52:32;6.60;77.00
63277;DHT22;49403;51.046;13.780;2022-11-23T01:53:03;6.70;77.80
63277;DHT22;49403;51.046;13.780;2022-11-23T01:53:34;7.10;78.20
63277;DHT22;49403;51.046;13.780;2022-11-23T01:54:13;6.30;76.80
63277;DHT22;49403;51.046;13.780;2022-11-23T01:54:48;7.10;77.50
63277;DHT22;49403;51.046;13.780;2022-11-23T01:55:19;6.60;76.90
63277;DHT22;49403;51.046;13.780;2022-11-23T01:55:51;6.60;77.20
63277;DHT22;49403;51.046;13.780;2022-11-23T01:56:27;6.60;77.00
63277;DHT22;49403;51.046;13.780;2022-11-23T01:57:02;6.60;77.00
63277;DHT22;49403;51.046;13.780;2022-11-23T01:57:39;6.70;77.10
63277;DHT22;49403;51.046;13.780;2022-11-23T01:58:13;6.40;76.80
63277;DHT22;49403;51.046;13.780;2022-11-23T01:58:46;5.90;76.40
63277;DHT22;49403;51.046;13.780;2022-11-23T01:59:18;7.70;78.30
63277;DHT22;49403;51.046;13.780;2022-11-23T01:59:50;6.60;77.70
63277;DHT22;49403;51.046;13.780;2022-11-23T02:00:21;6.10;76.70
63277;DHT22;49403;51.046;13.780;2022-11-23T02:00:52;6.70;77.30
63277;DHT22;49403;51.046;13.780;2022-11-23T02:01:23;6.70;77.70
63277;DHT22;49403;51.046;13.780;2022-11-23T02:01:54;6.70;77.70
63277;DHT22;49403;51.046;13.780;2022-11-23T02:02:26;6.80;77.80
63277;DHT22;49403;51.046;13.780;2022-11-23T02:02:59;7.80;77.90
63277;DHT22;49403;51.046;13.780;2022-11-23T02:03:31;6.80;77.10
63277;DHT22;49403;51.046;13.780;2022-11-23T02:04:03;5.30;75.60
63277;DHT22;49403;51.046;13.780;2022-11-23T02:04:38;6.70;76.80
63277;DHT22;49403;51.046;13.780;2022-11-23T02:05:10;6.70;77.00
63277;DHT22;49403;51.046;13.780;2022-11-23T02:05:45;6.70;77.10
63277;DHT22;49403;51.046;13.780;2022-11-23T02:06:18;6.70;77.00
63277;DHT22;49403;51.046;13.780;2022-11-23T02:06:50;8.70;78.90
63277;DHT22;49403;51.046;13.780;2022-11-23T02:07:23;6.70;77.00
63277;DHT22;49403;51.046;13.780;2022-11-23T02:07:54;6.70;77.10
63277;DHT22;49403;51.046;13.780;2022-11-23T02:08:27;6.60;77.00
63277;DHT22;49403;51.046;13.780;2022-11-23T02:08:59;6.60;77.00
63277;DHT22;49403;51.046;13.780;2022-11-23T02:09:30;6.70;77.20
63277;DHT22;49403;51.046;13.780;2022-11-23T02:10:03;8.10;78.50
63277;DHT22;49403;51.046;13.780;2022-11-23T02:10:35;6.60;77.40
63277;DHT22;49403;51.046;13.780;2022-11-23T02:11:06;6.60;77.80
63277;DHT22;49403;51.046;13.780;2022-11-23T02:11:37;4.70;75.30
63277;DHT22;49403;51.046;13.780;2022-11-23T02:12:10;6.60;77.60
63277;DHT22;49403;51.046;13.780;2022-11-23T02:12:41;6.40;76.90
63277;DHT22;49403;51.046;13.780;2022-11-23T02:13:12;6.60;78.10
63277;DHT22;49403;51.046;13.780;2022-11-23T02:13:45;4.70;76.20
63277;DHT22;49403;51.046;13.780;2022-11-23T02:14:17;5.50;76.10
63277;DHT22;49403;51.046;13.780;2022-11-23T02:14:48;6.70;77.70
63277;DHT22;49403;51.046;13.780;2022-11-23T02:15:19;6.70;78.00
63277;DHT22;49403;51.046;13.780;2022-11-23T02:15:50;6.70;78.00
63277;DHT22;49403;51.046;13.780;2022-11-23T02:16:22;6.70;77.30
63277;DHT22;49403;51.046;13.780;2022-11-23T02:16:52;8.20;79.50
63277;DHT22;49403;51.046;13.780;2022-11-23T02:17:23;6.70;77.50
63277;DHT22;49403;51.046;13.780;2022-11-23T02:17:55;6.60;78.00
63277;DHT22;49403;51.046;13.780;2022-11-23T02:18:29;6.70;77.10
63277;DHT22;49403;51.046;13.780;2022-11-23T02:19:00;6.70;77.20
63277;DHT22;49403;51.046;13.780;2022-11-23T02:20:31;6.70;77.90
63277;DHT22;49403;51.046;13.780;2022-11-23T02:21:02;5.80;77.20
63277;DHT22;49403;51.046;13.780;2022-11-23T02:21:34;6.60;77.30
63277;DHT22;49403;51.046;13.780;2022-11-23T02:22:14;6.50;78.00
63277;DHT22;49403;51.046;13.780;2022-11-23T02:24:22;6.50;77.10
63277;DHT22;49403;51.046;13.780;2022-11-23T02:24:56;6.50;77.70
63277;DHT22;49403;51.046;13.780;2022-11-23T02:26:18;6.30;78.60
63277;DHT22;49403;51.046;13.780;2022-11-23T02:26:50;6.40;77.90
63277;DHT22;49403;51.046;13.780;2022-11-23T02:27:22;6.40;78.00
63277;DHT22;49403;51.046;13.780;2022-11-23T02:27:53;4.50;76.10
63277;DHT22;49403;51.046;13.780;2022-11-23T02:28:32;6.40;78.80
63277;DHT22;49403;51.046;13.780;2022-11-23T02:29:24;6.40;77.50
63277;DHT22;49403;51.046;13.780;2022-11-23T02:29:57;6.50;77.50
63277;DHT22;49403;51.046;13.780;2022-11-23T02:30:30;6.40;78.00
63277;DHT22;49403;51.046;13.780;2022-11-23T02:31:01;7.40;78.80
63277;DHT22;49403;51.046;13.780;2022-11-23T02:31:32;6.40;78.90
63277;DHT22;49403;51.046;13.780;2022-11-23T02:32:04;6.40;78.40
63277;DHT22;49403;51.046;13.780;2022-11-23T02:32:35;6.40;78.60
63277;DHT22;49403;51.046;13.780;2022-11-23T02:33:07;6.50;78.10
63277;DHT22;49403;51.046;13.780;2022-11-23T02:33:39;6.40;78.60
63277;DHT22;49403;51.046;13.780;2022-11-23T02:34:10;6.40;77.80
63277;DHT22;49403;51.046;13.780;2022-11-23T02:34:41;6.50;78.50
63277;DHT22;49403;51.046;13.780;2022-11-23T02:35:11;6.50;78.70
63277;DHT22;49403;51.046;13.780;2022-11-23T02:35:50;6.50;78.20
63277;DHT22;49403;51.046;13.780;2022-11-23T02:36:38;6.50;78.10
63277;DHT22;49403;51.046;13.780;2022-11-23T02:37:09;6.60;77.60
63277;DHT22;49403;51.046;13.780;2022-11-23T02:37:41;6.40;78.70
63277;DHT22;49403;51.046;13.780;2022-11-23T02:38:12;6.40;78.10
63277;DHT22;49403;51.046;13.780;2022-11-23T02:38:43;6.40;78.60
63277;DHT22;49403;51.046;13.780;2022-11-23T02:39:31;6.50;78.90
63277;DHT22;49403;51.046;13.780;2022-11-23T02:40:11;6.50;77.80
63277;DHT22;49403;51.046;13.780;2022-11-23T02:40:46;6.40;78.20
63277;DHT22;49403;51.046;13.780;2022-11-23T02:41:17;7.50;79.90
63277;DHT22;49403;51.046;13.780;2022-11-23T02:41:52;6.60;79.30
63277;DHT22;49403;51.046;13.780;2022-11-23T02:42:24;6.50;78.40
63277;DHT22;49403;51.046;13.780;2022-11-23T02:42:56;5.30;77.20
63277;DHT22;49403;51.046;13.780;2022-11-23T02:43:27;6.40;78.40
63277;DHT22;49403;51.046;13.780;2022-11-23T02:43:57;6.50;79.10
63277;DHT22;49403;51.046;13.780;2022-11-23T02:45:22;6.60;77.80
63277;DHT22;49403;51.046;13.780;2022-11-23T02:45:56;6.60;77.70
63277;DHT22;49403;51.046;13.780;2022-11-23T02:46:27;5.70;77.20
63277;DHT22;49403;51.046;13.780;2022-11-23T02:46:58;8.90;81.10
63277;DHT22;49403;51.046;13.780;2022-11-23T02:47:29;6.50;79.20
63277;DHT22;49403;51.046;13.780;2022-11-23T02:48:00;6.60;78.90
63277;DHT22;49403;51.046;13.780;2022-11-23T02:48:31;6.90;79.10
63277;DHT22;49403;51.046;13.780;2022-11-23T02:49:01;6.80;79.10
63277;DHT22;49403;51.046;13.780;2022-11-23T02:49:33;6.60;79.00
63277;DHT22;49403;51.046;13.780;2022-11-23T02:50:04;6.60;78.00
63277;DHT22;49403;51.046;13.780;2022-11-23T02:50:35;6.70;78.30
63277;DHT22;49403;51.046;13.780;2022-11-23T02:51:05;7.10;79.10
63277;DHT22;49403;51.046;13.780;2022-11-23T02:51:36;7.30;79.10
63277;DHT22;49403;51.046;13.780;2022-11-23T02:52:08;5.60;77.60
63277;DHT22;49403;51.046;13.780;2022-11-23T02:52:38;6.60;78.40
63277;DHT22;49403;51.046;13.780;2022-11-23T02:53:10;6.70;78.60
63277;DHT22;49403;51.046;13.780;2022-11-23T02:53:41;6.70;77.70
63277;DHT22;49403;51.046;13.780;2022-11-23T02:54:11;8.40;80.00
63277;DHT22;49403;51.046;13.780;2022-11-23T02:54:42;6.70;78.40
63277;DHT22;49403;51.046;13.780;2022-11-23T02:55:13;6.70;78.40
63277;DHT22;49403;51.046;13.780;2022-11-23T02:55:44;6.70;78.50
63277;DHT22;49403;51.046;13.780;2022-11-23T02:56:15;5.50;77.40
63277;DHT22;49403;51.046;13.780;2022-11-23T02:56:46;6.70;78.40
63277;DHT22;49403;51.046;13.780;2022-11-23T02:57:16;6.70;78.20
63277;DHT22;49403;51.046;13.780;2022-11-23T02:57:47;6.90;78.50
63277;DHT22;49403;51.046;13.780;2022-11-23T02:58:18;6.70;78.30
63277;DHT22;49403;51.046;13.780;2022-11-23T02:58:49;6.70;78.30
63277;DHT22;49403;51.046;13.780;2022-11-23T02:59:20;6.70;78.30
63277;DHT22;49403;51.046;13.780;2022-11-23T02:59:50;6.60;78.30
63277;DHT22;49403;51.046;13.780;2022-11-23T03:00:21;6.90;78.40
63277;DHT22;49403;51.046;13.780;2022-11-23T03:00:52;7.80;79.40
63277;DHT22;49403;51.046;13.780;2022-11-23T03:01:23;6.70;78.40
63277;DHT22;49403;51.046;13.780;2022-11-23T03:01:54;7.40;78.90
63277;DHT22;49403;51.046;13.780;2022-11-23T03:02:25;6.70;78.30
63277;DHT22;49403;51.046;13.780;2022-11-23T03:02:57;6.70;78.10
63277;DHT22;49403;51.046;13.780;2022-11-23T03:03:29;6.70;77.40
63277;DHT22;49403;51.046;13.780;2022-11-23T03:04:00;6.20;77.60
63277;DHT22;49403;51.046;13.780;2022-11-23T03:04:31;6.50;77.80
63277;DHT22;49403;51.046;13.780;2022-11-23T03:05:02;6.70;78.30
63277;DHT22;49403;51.046;13.780;2022-11-23T03:05:33;6.70;77.70
63277;DHT22;49403;51.046;13.780;2022-11-23T03:06:04;6.70;78.30
63277;DHT22;49403;51.046;13.780;2022-11-23T03:06:35;6.70;78.10
63277;DHT22;49403;51.046;13.780;2022-11-23T03:07:06;7.50;78.40
63277;DHT22;49403;51.046;13.780;2022-11-23T03:07:37;6.70;78.20
63277;DHT22;49403;51.046;13.780;2022-11-23T03:08:07;6.70;78.30
63277;DHT22;49403;51.046;13.780;2022-11-23T03:08:38;6.90;78.30
63277;DHT22;49403;51.046;13.780;2022-11-23T03:09:09;6.80;78.30
63277;DHT22;49403;51.046;13.780;2022-11-23T03:09:40;6.60;78.10
63277;DHT22;49403;51.046;13.780;2022-11-23T03:10:11;4.80;76.40
63277;DHT22;49403;51.046;13.780;2022-11-23T03:10:42;6.60;77.80
63277;DHT22;49403;51.046;13.780;2022-11-23T03:11:13;6.60;78.60
63277;DHT22;49403;51.046;13.780;2022-11-23T03:11:43;6.60;78.30
63277;DHT22;49403;51.046;13.780;2022-11-23T03:12:14;6.60;78.50
63277;DHT22;49403;51.046;13.780;2022-11-23T03:12:46;6.60;78.50
63277;DHT22;49403;51.046;13.780;2022-11-23T03:13:16;6.70;78.80
63277;DHT22;49403;51.046;13.780;2022-11-23T03:13:47;7.10;78.90
63277;DHT22;49403;51.046;13.780;2022-11-23T03:14:18;6.60;78.70
63277;DHT22;49403;51.046;13.780;2022-11-23T03:14:49;6.60;78.60
63277;DHT22;49403;51.046;13.780;2022-11-23T03:15:20;6.80;78.70
63277;DHT22;49403;51.046;13.780;2022-11-23T03:15:54;6.60;78.70
63277;DHT22;49403;51.046;13.780;2022-11-23T03:16:26;6.70;77.80
63277;DHT22;49403;51.046;13.780;2022-11-23T03:16:58;6.50;78.40
63277;DHT22;49403;51.046;13.780;2022-11-23T03:17:29;4.70;75.80
63277;DHT22;49403;51.046;13.780;2022-11-23T03:18:00;6.70;78.50
63277;DHT22;49403;51.046;13.780;2022-11-23T03:18:31;6.70;78.60
63277;DHT22;49403;51.046;13.780;2022-11-23T03:19:02;7.00;78.70
63277;DHT22;49403;51.046;13.780;2022-11-23T03:19:33;6.70;77.70
63277;DHT22;49403;51.046;13.780;2022-11-23T03:20:04;6.70;78.40
63277;DHT22;49403;51.046;13.780;2022-11-23T03:20:35;6.70;77.50
63277;DHT22;49403;51.046;13.780;2022-11-23T03:21:06;6.70;78.50
63277;DHT22;49403;51.046;13.780;2022-11-23T03:21:38;6.70;77.70
63277;DHT22;49403;51.046;13.780;2022-11-23T03:22:09;6.80;78.70
63277;DHT22;49403;51.046;13.780;2022-11-23T03:22:40;6.80;78.60
63277;DHT22;49403;51.046;13.780;2022-11-23T03:23:10;6.70;78.40
63277;DHT22;49403;51.046;13.780;2022-11-23T03:23:41;6.20;77.80
63277;DHT22;49403;51.046;13.780;2022-11-23T03:24:12;6.90;78.70
63277;DHT22;49403;51.046;13.780;2022-11-23T03:24:43;6.70;78.30
63277;DHT22;49403;51.046;13.780;2022-11-23T03:25:14;6.90;78.60
63277;DHT22;49403;51.046;13.780;2022-11-23T03:25:45;6.70;78.40
63277;DHT22;49403;51.046;13.780;2022-11-23T03:26:23;7.20;78.00